Language selection

Weather shortcuts

Lake of the Woods: Past 24 Hour Conditions

 

Thunder Bay Airport

03:00 PM EDT 14 June 2024
Disclaimer

This table is a summary of hourly weather conditions for the past 24 hours.
Please note that these observations might not always be representative of weather conditions over their associated marine area.

Date / Time
(EDT)
Wind(knots) Conditions Visibility(km) Pressure(kPa) Air tempC) Relative humidity(%) Dew pointC) Humidex
14 June 2024
15:00 E 9 Partly Cloudy 32 101.9 18 58 10 *
14:00 SE 8 Mainly Sunny 32 101.9 17 59 9 *
13:00 ESE 10 Partly Cloudy 32 102.0 16 61 9 *
12:00 E 8 Mainly Sunny 32 102.0 15 63 8 *
11:00 E 6 Mainly Sunny 32 101.9 15 63 8 *
10:00 E 5 Mainly Sunny 32 101.9 14 59 6 *
9:00 E 4 Mainly Sunny 32 101.9 14 65 8 *
8:00 N 2 Mainly Sunny 32 101.8 10 87 8 *
7:00 WNW 3 Partly Cloudy 32 101.8 8 97 8 *
6:00 NW 3 Partly Cloudy 32 101.7 8 98 7 *
5:00 W 2 Partly Cloudy 24 101.6 7 97 7 *
4:00 SW 3 Clear 24 101.4 9 95 8 *
3:00 W 4 Clear 24 101.4 9 98 9 *
2:00 WSW 5 Clear 24 101.3 9 98 9 *
1:00 SW 4 Clear 24 101.3 10 97 9 *
0:00 WNW 2 Clear 24 101.2 11 97 11 *
13 June 2024
23:00 NNW 2 Mainly Clear 24 101.2 13 97 12 *
22:00 NNE 5 Mainly Clear 32 101.0 16 79 12 *
21:00 NW 2 Partly Cloudy 32 101.0 19 63 12 *
20:00 NNW 6 Partly Cloudy 32 100.9 20 56 11 *
19:00 W 5 Mostly Cloudy 32 100.9 20 69 14 *
18:00 WNW 10 Light Rainshower 32 100.8 20 63 13 23
17:00 WNW 10 gusts 17 Mostly Cloudy 32 100.8 18 73 13 *
16:00 WSW 9 Light Rainshower 32 100.7 17 87 15 *
15:00 SW 14 Thunderstorm with light rainshowers 32 100.7 14 90 12 *

Zoom-in to make a selection

Map of Great Lakes - Lake Superior marine weather areas Mid Superior - 45001 East Superior - 45004 West Superior - 45006 Slate Island - 45136 Lake Of the Woods - 45148 Kenora Airport Royal Island Armstrong Airport Caribou Island Marathon Airport Pukaskwa National Park Thunder Bay Airport Welcome Island Little Flatland Island Sault Ste. Marie Airport Wawa Airport
Legend:
buoy Buoy
land station Land Station

Great Lakes - Lake Superior Area

Another Region

Features

New Predicting and Alerting Coastal Flooding Program

Find out about coastal flooding coverage, forecasts and warnings in your region

Date modified: